Kota Waris — S6RJ — position and weather

sailwx.info

Track history (hours):
 
Tides and Currents Weather Stations Pressure Air Temp Water Temp Dewpoint Dewpoint Depression Visibility Wind Speed Wind Dir Waves Ship Positions

Kota Waris

Last reported at 2017-Jan-10 00:19 UTC. Time now 2017-Jan-17 13:06 UTC.
Position N 01°14' E 103°60'.

Length 185 m; draft 10 m.

Type: Cargo ship. MMSI: 564482000.

Date/timePositionNaut miles runAvg speedWind from/ knotsBaromVisibWave heightAir tempDewpointWater temp
2017-Jan-10 00:19N 01°14' E 103°60'11 9.9
2017-Jan-09 23:14N 01°12' E 103°49'5 6.5
2017-Jan-09 22:28N 01°15' E 103°46'2 1.7
2017-Jan-09 21:34N 01°17' E 103°46'0 0.0
2017-Jan-09 20:16N 01°17' E 103°46'0 0.1
2017-Jan-09 19:25N 01°17' E 103°46'0 0.1
2017-Jan-09 18:33N 01°17' E 103°46'0 0.1
2017-Jan-09 17:24N 01°17' E 103°46'0 0.0
2017-Jan-09 16:32N 01°17' E 103°46'0 0.0
2017-Jan-09 15:32N 01°17' E 103°46'0 0.1
2017-Jan-09 14:31N 01°17' E 103°46'0 0.1
2017-Jan-09 13:33N 01°17' E 103°46'0 0.1
2017-Jan-09 12:33N 01°17' E 103°46'0 0.1
2017-Jan-09 11:29N 01°17' E 103°46'1 0.7
2017-Jan-09 10:31N 01°17' E 103°46'1 1.2
2017-Jan-09 09:23N 01°16' E 103°46'7 7.8
2017-Jan-09 08:32N 01°13' E 103°52'3 2.8
2017-Jan-09 07:23N 01°16' E 103°50'0 0.0
2017-Jan-09 06:26N 01°16' E 103°50'0 0.0
2017-Jan-09 05:23N 01°16' E 103°50'0 0.0
2017-Jan-09 04:23N 01°16' E 103°50'0 0.0
2017-Jan-09 03:29N 01°16' E 103°50'0 0.0
2017-Jan-09 02:29N 01°16' E 103°50'0 0.0
2017-Jan-09 01:32N 01°16' E 103°50'0 0.0
2017-Jan-09 00:23N 01°16' E 103°50'0 0.0
2017-Jan-08 22:29N 01°16' E 103°50'0 0.0
2017-Jan-08 21:29N 01°16' E 103°50'0 0.0
2017-Jan-08 20:29N 01°16' E 103°50'0 0.0
2017-Jan-08 19:29N 01°16' E 103°50'0 0.0
2017-Jan-08 18:29N 01°16' E 103°50'0 0.0
2017-Jan-08 17:17N 01°16' E 103°50'2 2.9
2017-Jan-08 16:32N 01°15' E 103°52'1 0.3
2017-Jan-08 13:29N 01°15' E 103°53'0 0.0
2017-Jan-08 12:14N 01°15' E 103°53'0 0.1
2017-Jan-08 11:20N 01°15' E 103°53'0 0.0
2017-Jan-08 03:32N 01°15' E 103°53'0 0.0
2017-Jan-08 01:17N 01°15' E 103°53'0 0.1
2017-Jan-08 00:08N 01°15' E 103°53'0 0.1
2017-Jan-07 23:32N 01°15' E 103°53'0 0.0
2017-Jan-07 22:32N 01°15' E 103°53'0 0.0
2017-Jan-07 21:32N 01°15' E 103°53'0 0.0
2017-Jan-07 20:32N 01°15' E 103°53'0 0.0
2017-Jan-07 19:32N 01°15' E 103°53'0 0.0
2017-Jan-07 18:32N 01°15' E 103°53'0 0.0
2017-Jan-07 17:26N 01°15' E 103°53'0 0.0
2017-Jan-07 16:32N 01°15' E 103°53'0 0.0
2017-Jan-07 15:32N 01°15' E 103°53'0 0.0
2017-Jan-07 14:32N 01°15' E 103°53'0 0.0
2017-Jan-07 13:32N 01°15' E 103°53'0 0.1
2017-Jan-07 12:26N 01°15' E 103°53'0 0.1
2017-Jan-07 11:32N 01°15' E 103°53'0 0.0
2017-Jan-07 10:32N 01°15' E 103°53'0 0.0
2017-Jan-07 09:20N 01°15' E 103°53'0 0.0
2017-Jan-07 05:14N 01°15' E 103°53'0 0.0
2017-Jan-07 04:14N 01°15' E 103°53'0 0.0
2017-Jan-07 03:26N 01°15' E 103°53'0 0.0
2017-Jan-07 00:32N 01°15' E 103°53'0 0.0
2017-Jan-06 22:32N 01°15' E 103°53'0 0.0
2017-Jan-06 21:33N 01°15' E 103°53'0 0.1
2017-Jan-06 20:34N 01°15' E 103°53'0 0.0
2017-Jan-06 19:34N 01°15' E 103°53'0 0.0
2017-Jan-06 18:32N 01°15' E 103°53'0 0.0
2017-Jan-06 17:34N 01°15' E 103°53'0 0.0
2017-Jan-06 16:33N 01°15' E 103°53'0 0.0
2017-Jan-06 15:33N 01°15' E 103°53'0 0.1
2017-Jan-06 14:34N 01°15' E 103°53'5 5.3
2017-Jan-06 13:31N 01°13' E 103°48'5 4.6
2017-Jan-06 12:33N 01°17' E 103°46'0 0.0
2017-Jan-06 04:06N 01°17' E 103°46'0 0.0
2017-Jan-05 23:20N 01°17' E 103°46'2 2.1
2017-Jan-05 22:33N 01°16' E 103°46'8 8.0
2017-Jan-05 21:31N 01°14' E 103°54'5 5.2
2017-Jan-05 20:31N 01°15' E 103°59'  
2016-Dec-31 11:16N 01°13' E 103°57'810.0
2016-Dec-31 10:29N 01°12' E 103°49'6 6.4
2016-Dec-31 09:33N 01°17' E 103°46'  
Track history (hours):
 
Tides and Currents Weather Stations Pressure Air Temp Water Temp Dewpoint Dewpoint Depression Visibility Wind Speed Wind Dir Waves Ship Positions

Kota Waris

Last reported at 2017-Jan-10 00:19 UTC. Time now 2017-Jan-17 13:06 UTC.
Position N 01°14' E 103°60'.

Length 185 m; draft 10 m.

Type: Cargo ship. MMSI: 564482000.

Date/timePositionNaut miles runAvg speedWind from/ knotsBaromVisibWave heightAir tempDewpointWater temp
2017-Jan-10 00:19N 01°14' E 103°60'11 9.9
2017-Jan-09 23:14N 01°12' E 103°49'5 6.5
2017-Jan-09 22:28N 01°15' E 103°46'2 1.7
2017-Jan-09 21:34N 01°17' E 103°46'0 0.0
2017-Jan-09 20:16N 01°17' E 103°46'0 0.1
2017-Jan-09 19:25N 01°17' E 103°46'0 0.1
2017-Jan-09 18:33N 01°17' E 103°46'0 0.1
2017-Jan-09 17:24N 01°17' E 103°46'0 0.0
2017-Jan-09 16:32N 01°17' E 103°46'0 0.0
2017-Jan-09 15:32N 01°17' E 103°46'0 0.1
2017-Jan-09 14:31N 01°17' E 103°46'0 0.1
2017-Jan-09 13:33N 01°17' E 103°46'0 0.1
2017-Jan-09 12:33N 01°17' E 103°46'0 0.1
2017-Jan-09 11:29N 01°17' E 103°46'1 0.7
2017-Jan-09 10:31N 01°17' E 103°46'1 1.2
2017-Jan-09 09:23N 01°16' E 103°46'7 7.8
2017-Jan-09 08:32N 01°13' E 103°52'3 2.8
2017-Jan-09 07:23N 01°16' E 103°50'0 0.0
2017-Jan-09 06:26N 01°16' E 103°50'0 0.0
2017-Jan-09 05:23N 01°16' E 103°50'0 0.0
2017-Jan-09 04:23N 01°16' E 103°50'0 0.0
2017-Jan-09 03:29N 01°16' E 103°50'0 0.0
2017-Jan-09 02:29N 01°16' E 103°50'0 0.0
2017-Jan-09 01:32N 01°16' E 103°50'0 0.0
2017-Jan-09 00:23N 01°16' E 103°50'0 0.0
2017-Jan-08 22:29N 01°16' E 103°50'0 0.0
2017-Jan-08 21:29N 01°16' E 103°50'0 0.0
2017-Jan-08 20:29N 01°16' E 103°50'0 0.0
2017-Jan-08 19:29N 01°16' E 103°50'0 0.0
2017-Jan-08 18:29N 01°16' E 103°50'0 0.0
2017-Jan-08 17:17N 01°16' E 103°50'2 2.9
2017-Jan-08 16:32N 01°15' E 103°52'1 0.3
2017-Jan-08 13:29N 01°15' E 103°53'0 0.0
2017-Jan-08 12:14N 01°15' E 103°53'0 0.1
2017-Jan-08 11:20N 01°15' E 103°53'0 0.0
2017-Jan-08 03:32N 01°15' E 103°53'0 0.0
2017-Jan-08 01:17N 01°15' E 103°53'0 0.1
2017-Jan-08 00:08N 01°15' E 103°53'0 0.1
2017-Jan-07 23:32N 01°15' E 103°53'0 0.0
2017-Jan-07 22:32N 01°15' E 103°53'0 0.0
2017-Jan-07 21:32N 01°15' E 103°53'0 0.0
2017-Jan-07 20:32N 01°15' E 103°53'0 0.0
2017-Jan-07 19:32N 01°15' E 103°53'0 0.0
2017-Jan-07 18:32N 01°15' E 103°53'0 0.0
2017-Jan-07 17:26N 01°15' E 103°53'0 0.0
2017-Jan-07 16:32N 01°15' E 103°53'0 0.0
2017-Jan-07 15:32N 01°15' E 103°53'0 0.0
2017-Jan-07 14:32N 01°15' E 103°53'0 0.0
2017-Jan-07 13:32N 01°15' E 103°53'0 0.1
2017-Jan-07 12:26N 01°15' E 103°53'0 0.1
2017-Jan-07 11:32N 01°15' E 103°53'0 0.0
2017-Jan-07 10:32N 01°15' E 103°53'0 0.0
2017-Jan-07 09:20N 01°15' E 103°53'0 0.0
2017-Jan-07 05:14N 01°15' E 103°53'0 0.0
2017-Jan-07 04:14N 01°15' E 103°53'0 0.0
2017-Jan-07 03:26N 01°15' E 103°53'0 0.0
2017-Jan-07 00:32N 01°15' E 103°53'0 0.0
2017-Jan-06 22:32N 01°15' E 103°53'0 0.0
2017-Jan-06 21:33N 01°15' E 103°53'0 0.1
2017-Jan-06 20:34N 01°15' E 103°53'0 0.0
2017-Jan-06 19:34N 01°15' E 103°53'0 0.0
2017-Jan-06 18:32N 01°15' E 103°53'0 0.0
2017-Jan-06 17:34N 01°15' E 103°53'0 0.0
2017-Jan-06 16:33N 01°15' E 103°53'0 0.0
2017-Jan-06 15:33N 01°15' E 103°53'0 0.1
2017-Jan-06 14:34N 01°15' E 103°53'5 5.3
2017-Jan-06 13:31N 01°13' E 103°48'5 4.6
2017-Jan-06 12:33N 01°17' E 103°46'0 0.0
2017-Jan-06 04:06N 01°17' E 103°46'0 0.0
2017-Jan-05 23:20N 01°17' E 103°46'2 2.1
2017-Jan-05 22:33N 01°16' E 103°46'8 8.0
2017-Jan-05 21:31N 01°14' E 103°54'5 5.2
2017-Jan-05 20:31N 01°15' E 103°59'  
2016-Dec-31 11:16N 01°13' E 103°57'810.0
2016-Dec-31 10:29N 01°12' E 103°49'6 6.4
2016-Dec-31 09:33N 01°17' E 103°46'  

Dump ship's entire track history